Country
Station

 

Weather  for  Rennes  -  France    France

  
16 °C (61 °F)
    
 
 

Current METAR for Rennes is :

LFRN 161300Z AUTO 18016KT 5000 -RA BR OVC008 16/15 Q1005 TEMPO RA BECMG VRB05KT

 

This is a report for Rennes - France.
 
The report was made 7 minutes ago, at 13:00 UTC .
The wind was blowing at a speed of 8.2 meters per second (18.4 miles per hour) from south (180°).
 
The temperature was 16 °C (61 °F), with a dew-point at 15 °C (59 °F).
The atmospheric pressure was 1005 hPa (29.68 inHg).
The relative humidity was 93.8%.
 
The sky was overcast from a height of 244 meter (800 feet)
 
The overall visibility was 5.0 kilometers (3.1 miles).
 
Currently light rain plus mist.

 
 
 
 

Country :   A   B   C   D   E   F   G   H   I   J   K   L   M   N   O   P   Q   R   S   T   U   V   W   Y   Z

 

Site Info  |  Disclaimer  |  Credits  |  Privacy
Contact us  |  Add to favorites
© 2013-2019 METARs - All rights reserved